createdAt,value
2022-09-15T00:01:09.817Z,70.07
2022-09-15T00:03:37.619Z,70.08
2022-09-15T00:06:05.718Z,68.14
2022-09-15T00:08:33.335Z,64.06
2022-09-15T00:11:16.120Z,63.29
2022-09-15T00:13:43.980Z,61.47
2022-09-15T00:16:14.950Z,61.19
2022-09-15T00:18:44.117Z,60.65
2022-09-15T00:21:14.969Z,60.80
2022-09-15T00:23:42.590Z,59.94
2022-09-15T00:26:11.585Z,60.04
2022-09-15T00:28:39.607Z,59.38
2022-09-15T00:31:11.129Z,59.47
2022-09-15T00:33:38.687Z,59.89
2022-09-15T00:36:08.233Z,59.65
2022-09-15T00:38:36.829Z,59.60
2022-09-15T00:41:06.031Z,59.69
2022-09-15T00:43:55.768Z,59.74
2022-09-15T00:46:36.145Z,59.98
2022-09-15T00:49:14.652Z,60.14
2022-09-15T00:51:44.738Z,60.05
2022-09-15T00:54:17.819Z,60.16
2022-09-15T00:56:48.381Z,60.14
2022-09-15T00:59:19.298Z,60.40
2022-09-15T01:01:47.928Z,61.00
2022-09-15T01:04:16.044Z,60.77
2022-09-15T01:06:52.506Z,60.84
2022-09-15T01:09:25.637Z,61.00
2022-09-15T01:11:52.814Z,61.10
2022-09-15T01:14:20.093Z,61.52
2022-09-15T01:17:04.078Z,61.03
2022-09-15T01:19:55.954Z,61.42
2022-09-15T01:22:54.115Z,61.51
2022-09-15T01:25:48.895Z,61.16
2022-09-15T01:28:30.488Z,61.09
2022-09-15T01:31:26.442Z,60.86
2022-09-15T01:34:16.305Z,60.74
2022-09-15T01:36:53.248Z,60.92
2022-09-15T01:39:32.412Z,60.56
2022-09-15T01:42:03.917Z,61.17
2022-09-15T01:44:55.264Z,61.58
2022-09-15T01:47:24.549Z,61.48
2022-09-15T01:49:56.893Z,61.52
2022-09-15T01:52:25.128Z,61.74
2022-09-15T01:54:56.181Z,61.60
2022-09-15T01:57:23.756Z,62.31
2022-09-15T01:59:52.606Z,62.16
2022-09-15T02:02:31.050Z,61.45
2022-09-15T02:05:03.930Z,61.37
2022-09-15T02:07:35.715Z,61.31
2022-09-15T02:10:20.420Z,60.09
2022-09-15T02:13:17.302Z,60.39
2022-09-15T02:15:52.615Z,59.81
2022-09-15T02:18:35.983Z,59.45
2022-09-15T02:21:10.885Z,59.60
2022-09-15T02:23:50.400Z,59.48
2022-09-15T02:26:24.695Z,59.05
2022-09-15T02:28:54.978Z,59.21
2022-09-15T02:31:25.688Z,59.43
2022-09-15T02:34:01.501Z,58.99
2022-09-15T02:36:30.953Z,59.39
2022-09-15T02:39:07.516Z,59.84
2022-09-15T02:41:36.801Z,59.62
2022-09-15T02:44:04.209Z,59.51
2022-09-15T02:46:31.681Z,59.67
2022-09-15T02:48:58.905Z,59.24
2022-09-15T02:51:26.290Z,59.66
2022-09-15T02:53:54.928Z,58.95
2022-09-15T02:56:22.535Z,58.86
2022-09-15T02:58:49.600Z,58.26
2022-09-15T03:01:17.028Z,58.22
2022-09-15T03:03:46.192Z,58.47
2022-09-15T03:06:16.871Z,57.84
2022-09-15T03:08:52.526Z,58.38
2022-09-15T03:11:22.749Z,58.22
2022-09-15T03:13:54.701Z,58.50
2022-09-15T03:16:22.607Z,57.82
2022-09-15T03:18:49.922Z,58.12
2022-09-15T03:21:18.714Z,58.33
2022-09-15T03:23:46.254Z,57.97
2022-09-15T03:26:13.871Z,57.85
2022-09-15T03:28:41.458Z,57.22
2022-09-15T03:31:09.627Z,57.21
2022-09-15T03:33:37.433Z,57.23
2022-09-15T03:36:05.374Z,57.26
2022-09-15T03:38:32.717Z,57.44
2022-09-15T03:41:08.899Z,58.03
2022-09-15T03:43:37.279Z,57.57
2022-09-15T03:46:06.723Z,57.99
2022-09-15T03:48:35.993Z,58.02
2022-09-15T03:51:05.873Z,58.63
2022-09-15T03:53:36.596Z,58.43
2022-09-15T03:56:23.392Z,58.74
2022-09-15T03:58:51.810Z,58.48
2022-09-15T04:01:19.435Z,58.47
2022-09-15T04:03:50.878Z,58.75
2022-09-15T04:06:21.109Z,57.91
2022-09-15T04:08:49.586Z,57.45
2022-09-15T04:11:18.159Z,56.90
2022-09-15T04:13:46.342Z,57.03
2022-09-15T04:16:16.224Z,56.32
2022-09-15T04:18:43.864Z,56.53
2022-09-15T04:21:14.395Z,56.21
2022-09-15T04:23:43.057Z,56.03
2022-09-15T04:26:31.540Z,55.83
2022-09-15T04:29:03.710Z,55.69
2022-09-15T04:31:32.043Z,55.48
2022-09-15T04:33:59.678Z,54.99
2022-09-15T04:36:28.659Z,54.98
2022-09-15T04:38:56.779Z,55.55
2022-09-15T04:41:25.711Z,56.08
2022-09-15T04:43:53.535Z,56.07
2022-09-15T04:46:21.384Z,56.13
2022-09-15T04:48:49.117Z,56.05
2022-09-15T04:51:19.308Z,55.97
2022-09-15T04:53:47.262Z,55.62
2022-09-15T04:56:17.437Z,55.35
2022-09-15T04:58:48.546Z,54.99
2022-09-15T05:01:19.224Z,54.23
2022-09-15T05:03:47.118Z,53.58
2022-09-15T05:06:16.850Z,53.27
2022-09-15T05:08:47.261Z,52.01
2022-09-15T05:11:14.879Z,52.23
2022-09-15T05:13:42.788Z,52.13
2022-09-15T05:16:22.185Z,51.83
2022-09-15T05:18:51.373Z,51.32
2022-09-15T05:21:20.779Z,51.65
2022-09-15T05:23:48.835Z,50.93
2022-09-15T05:26:18.470Z,50.44
2022-09-15T05:28:46.225Z,49.70
2022-09-15T05:31:18.117Z,49.07
2022-09-15T05:33:46.505Z,48.73
2022-09-15T05:36:15.278Z,48.13
2022-09-15T05:38:42.704Z,47.66
2022-09-15T05:41:17.105Z,47.76
2022-09-15T05:43:48.793Z,46.75
2022-09-15T05:46:17.549Z,46.30
2022-09-15T05:48:45.537Z,46.47
2022-09-15T05:51:13.047Z,46.95
2022-09-15T05:53:40.885Z,46.61
2022-09-15T05:56:12.298Z,46.92
2022-09-15T05:58:41.864Z,47.21
2022-09-15T06:01:14.115Z,46.55
2022-09-15T06:03:41.373Z,45.92
2022-09-15T06:06:08.493Z,45.34
2022-09-15T06:08:44.104Z,44.69
2022-09-15T06:11:17.077Z,44.30
2022-09-15T06:13:44.375Z,44.25
2022-09-15T06:16:14.549Z,44.12
2022-09-15T06:18:42.565Z,43.80
2022-09-15T06:21:12.615Z,44.15
2022-09-15T06:23:40.909Z,43.11
2022-09-15T06:26:11.566Z,42.19
2022-09-15T06:28:40.911Z,42.73
2022-09-15T06:31:12.893Z,41.81
2022-09-15T06:33:46.004Z,40.84
2022-09-15T06:36:14.670Z,40.44
2022-09-15T06:38:43.174Z,39.28
2022-09-15T06:41:11.213Z,38.39
2022-09-15T06:43:38.681Z,38.62
2022-09-15T06:46:15.324Z,37.55
2022-09-15T06:48:47.439Z,36.96
2022-09-15T06:51:17.438Z,37.11
2022-09-15T06:53:45.786Z,36.35
2022-09-15T06:56:21.298Z,36.23
2022-09-15T06:58:51.840Z,36.37
2022-09-15T07:01:25.458Z,36.25
2022-09-15T07:03:53.232Z,35.65
2022-09-15T07:06:21.616Z,35.28
2022-09-15T07:08:49.933Z,34.94
2022-09-15T07:11:18.645Z,34.49
2022-09-15T07:13:46.293Z,33.66
2022-09-15T07:16:13.814Z,34.11
2022-09-15T07:18:43.573Z,33.95
2022-09-15T07:21:14.273Z,33.98
2022-09-15T07:23:42.295Z,33.45
2022-09-15T07:26:22.228Z,33.77
2022-09-15T07:28:52.087Z,33.25
2022-09-15T07:31:22.247Z,33.43
2022-09-15T07:33:50.411Z,33.55
2022-09-15T07:36:18.296Z,33.59
2022-09-15T07:38:48.126Z,34.02
2022-09-15T07:41:18.877Z,34.00
2022-09-15T07:43:51.749Z,34.75
2022-09-15T07:46:20.731Z,35.58
2022-09-15T07:48:50.370Z,35.87
2022-09-15T07:51:18.495Z,35.68
2022-09-15T07:53:48.108Z,35.98
2022-09-15T07:56:18.403Z,36.25
2022-09-15T07:58:47.460Z,36.52
2022-09-15T08:01:15.941Z,36.51
2022-09-15T08:03:45.078Z,35.69
2022-09-15T08:06:13.590Z,35.81
2022-09-15T08:08:46.017Z,36.59
2022-09-15T08:11:19.729Z,36.73
2022-09-15T08:13:52.742Z,37.79
2022-09-15T08:16:22.716Z,38.81
2022-09-15T08:18:52.319Z,38.93
2022-09-15T08:21:21.440Z,39.14
2022-09-15T08:23:58.926Z,39.96
2022-09-15T08:26:27.422Z,39.69
2022-09-15T08:28:54.803Z,39.64
2022-09-15T08:31:24.511Z,39.32
2022-09-15T08:33:53.649Z,40.31
2022-09-15T08:36:21.638Z,40.00
2022-09-15T08:38:49.089Z,39.75
2022-09-15T08:41:20.359Z,39.40
2022-09-15T08:44:19.658Z,39.23
2022-09-15T08:47:04.854Z,38.96
2022-09-15T08:49:52.454Z,38.32
2022-09-15T08:52:31.382Z,37.37
2022-09-15T08:55:01.629Z,36.95
2022-09-15T08:57:30.682Z,37.26
2022-09-15T08:59:59.886Z,37.10
2022-09-15T09:02:44.874Z,36.63
2022-09-15T09:05:42.556Z,35.85
2022-09-15T09:08:23.561Z,35.27
2022-09-15T09:11:15.312Z,35.17
2022-09-15T09:14:08.885Z,34.47
2022-09-15T09:17:05.687Z,35.02
2022-09-15T09:19:53.359Z,34.55
2022-09-15T09:22:33.304Z,33.78
2022-09-15T09:25:11.628Z,33.13
2022-09-15T09:27:43.627Z,32.62
2022-09-15T09:30:23.386Z,32.92
2022-09-15T09:33:11.866Z,44.25
2022-09-15T09:35:51.780Z,45.89
2022-09-15T09:38:34.434Z,45.28
2022-09-15T09:41:04.485Z,47.86
2022-09-15T09:43:34.050Z,49.33
2022-09-15T09:46:02.411Z,53.14
2022-09-15T09:48:30.402Z,52.92
2022-09-15T09:50:57.679Z,54.00
2022-09-15T09:53:34.472Z,55.50
2022-09-15T09:56:18.652Z,56.30
2022-09-15T09:58:46.402Z,57.10
2022-09-15T10:01:19.680Z,56.80
2022-09-15T10:03:47.528Z,57.29
2022-09-15T10:06:17.875Z,58.62
2022-09-15T10:08:58.294Z,59.67
2022-09-15T10:11:50.206Z,58.37
2022-09-15T10:14:23.238Z,58.61
2022-09-15T10:16:59.017Z,54.20
2022-09-15T10:19:31.836Z,54.06
2022-09-15T10:22:01.248Z,52.02
2022-09-15T10:24:28.476Z,53.49
2022-09-15T10:27:30.011Z,57.44
2022-09-15T10:30:13.829Z,55.17
2022-09-15T10:32:43.555Z,51.75
2022-09-15T10:35:15.232Z,47.71
2022-09-15T10:38:03.571Z,46.61
2022-09-15T10:40:39.810Z,48.75
2022-09-15T10:43:51.259Z,50.63
2022-09-15T10:46:47.202Z,50.31
2022-09-15T10:49:20.499Z,50.50
2022-09-15T10:52:25.266Z,49.14
2022-09-15T10:55:16.261Z,50.50
2022-09-15T10:58:04.609Z,50.86
2022-09-15T11:00:44.584Z,49.63
2022-09-15T11:03:17.852Z,49.93
2022-09-15T11:06:19.112Z,48.45
2022-09-15T11:09:09.954Z,49.96
2022-09-15T11:12:07.909Z,51.85
2022-09-15T11:14:49.048Z,53.90
2022-09-15T11:17:26.413Z,54.56
2022-09-15T11:20:27.493Z,57.70
2022-09-15T11:23:22.936Z,57.81
2022-09-15T11:25:57.718Z,54.92
2022-09-15T11:28:41.065Z,54.45
2022-09-15T11:31:27.137Z,58.39
2022-09-15T11:34:00.927Z,60.03
2022-09-15T11:36:47.750Z,60.54
2022-09-15T11:39:28.435Z,59.99
2022-09-15T11:42:06.100Z,61.31
2022-09-15T11:44:33.499Z,61.04
2022-09-15T11:47:10.175Z,61.13
2022-09-15T11:49:45.915Z,62.91
2022-09-15T11:52:33.423Z,62.40
2022-09-15T11:55:14.137Z,63.04
2022-09-15T11:58:02.177Z,63.36
2022-09-15T12:00:30.453Z,63.86
2022-09-15T12:03:10.752Z,63.04
2022-09-15T12:05:52.386Z,64.11
2022-09-15T12:08:29.901Z,64.77
2022-09-15T12:11:01.093Z,65.07
2022-09-15T12:13:29.997Z,64.13
2022-09-15T12:15:57.619Z,64.98
2022-09-15T12:18:41.779Z,65.05
2022-09-15T12:21:38.967Z,63.08
2022-09-15T12:24:34.672Z,60.88
2022-09-15T12:27:02.843Z,60.29
2022-09-15T12:29:42.135Z,61.67
2022-09-15T12:32:31.055Z,61.80
2022-09-15T12:35:01.263Z,62.00
2022-09-15T12:37:53.391Z,61.17
2022-09-15T12:40:40.851Z,63.32
2022-09-15T12:43:11.225Z,62.97
2022-09-15T12:45:39.847Z,63.13
2022-09-15T12:48:14.099Z,61.78
2022-09-15T12:50:43.858Z,61.70
2022-09-15T12:53:30.834Z,59.62
2022-09-15T12:56:11.969Z,59.46
2022-09-15T12:58:40.661Z,58.36
2022-09-15T13:01:23.011Z,56.71
2022-09-15T13:03:50.386Z,54.82
2022-09-15T13:06:23.535Z,54.42
2022-09-15T13:09:01.622Z,55.13
2022-09-15T13:11:42.320Z,54.64
2022-09-15T13:14:21.146Z,54.45
2022-09-15T13:17:10.721Z,58.18
2022-09-15T13:19:44.668Z,61.79
2022-09-15T13:22:11.747Z,61.86
2022-09-15T13:25:01.421Z,57.06
2022-09-15T13:28:09.228Z,57.94
2022-09-15T13:30:54.150Z,58.87
2022-09-15T13:40:18.055Z,54.70
2022-09-15T13:43:11.198Z,54.38
2022-09-15T13:45:59.145Z,53.29
2022-09-15T13:48:35.199Z,52.33
2022-09-15T13:51:10.678Z,52.70
2022-09-15T13:54:00.151Z,52.95
2022-09-15T13:56:32.289Z,54.20
2022-09-15T13:59:12.395Z,51.98
2022-09-15T14:01:42.646Z,52.85
2022-09-15T14:04:17.570Z,54.36
2022-09-15T14:06:48.288Z,57.63
2022-09-15T14:09:33.520Z,57.61
2022-09-15T14:12:05.282Z,56.38
2022-09-15T14:14:34.569Z,58.34
2022-09-15T14:17:01.814Z,54.12
2022-09-15T14:19:37.565Z,53.36
2022-09-15T14:22:31.138Z,53.56
2022-09-15T14:25:00.651Z,49.64
2022-09-15T14:27:30.946Z,49.23
2022-09-15T14:30:01.462Z,50.45
2022-09-15T14:32:31.688Z,50.04
2022-09-15T14:35:04.168Z,48.65
2022-09-15T14:37:34.984Z,47.38
2022-09-15T14:40:17.089Z,46.97
2022-09-15T14:42:44.854Z,48.13
2022-09-15T14:48:16.431Z,45.13
2022-09-15T14:50:57.039Z,43.93
2022-09-15T14:53:28.113Z,42.56
2022-09-15T14:56:13.183Z,42.56
2022-09-15T14:58:54.579Z,43.78
2022-09-15T15:01:46.426Z,44.25
2022-09-15T15:04:39.869Z,43.23
2022-09-15T15:07:26.464Z,44.73
2022-09-15T15:10:01.416Z,45.69
2022-09-15T15:12:36.569Z,46.09
2022-09-15T15:15:05.429Z,45.49
2022-09-15T15:17:40.558Z,44.07
2022-09-15T15:20:11.790Z,43.38
2022-09-15T15:22:40.547Z,45.12
2022-09-15T15:25:28.394Z,47.45
2022-09-15T15:27:57.866Z,42.86
2022-09-15T15:30:46.950Z,43.13
2022-09-15T15:33:20.257Z,42.27
2022-09-15T15:35:59.763Z,40.91
2022-09-15T15:38:27.375Z,39.63
2022-09-15T15:41:06.487Z,40.70
2022-09-15T15:43:34.686Z,41.65
2022-09-15T15:46:06.814Z,41.79
2022-09-15T15:48:37.963Z,41.54
2022-09-15T15:51:07.764Z,42.10
2022-09-15T15:53:35.180Z,41.39
2022-09-15T15:56:03.203Z,40.15
2022-09-15T15:58:30.408Z,39.48
2022-09-15T16:00:57.937Z,40.43
2022-09-15T16:03:25.268Z,40.70
2022-09-15T16:05:58.843Z,41.09
2022-09-15T16:08:34.734Z,40.42
2022-09-15T16:11:03.042Z,40.98
2022-09-15T16:13:30.620Z,40.67
2022-09-15T16:16:01.326Z,40.75
2022-09-15T16:18:29.479Z,40.64
2022-09-15T16:20:56.584Z,41.18
2022-09-15T16:23:24.179Z,40.61
2022-09-15T16:25:54.470Z,40.75
2022-09-15T16:28:21.832Z,40.08
2022-09-15T16:30:49.322Z,39.64
2022-09-15T16:33:18.697Z,39.68
2022-09-15T16:35:51.378Z,39.36
2022-09-15T16:38:20.379Z,39.49
2022-09-15T16:40:51.465Z,39.46
2022-09-15T16:43:23.834Z,39.49
2022-09-15T16:45:52.271Z,39.95
2022-09-15T16:48:20.040Z,40.03
2022-09-15T16:51:02.420Z,39.98
2022-09-15T16:53:37.462Z,40.75
2022-09-15T16:56:06.170Z,41.18
2022-09-15T16:58:34.156Z,41.42
2022-09-15T17:01:01.526Z,41.28
2022-09-15T17:03:28.907Z,41.50
2022-09-15T17:05:58.990Z,41.39
2022-09-15T17:08:31.637Z,41.60
2022-09-15T17:10:59.955Z,41.67
2022-09-15T17:13:30.890Z,41.45
2022-09-15T17:15:59.826Z,41.98
2022-09-15T17:18:28.071Z,41.27
2022-09-15T17:20:55.420Z,41.03
2022-09-15T17:23:31.463Z,40.99
2022-09-15T17:26:01.393Z,41.13
2022-09-15T17:28:34.242Z,41.42
2022-09-15T17:31:04.347Z,41.34
2022-09-15T17:33:32.999Z,40.16
2022-09-15T17:36:00.775Z,41.71
2022-09-15T17:38:28.091Z,40.25
2022-09-15T17:40:55.997Z,40.49
2022-09-15T17:43:25.777Z,46.46
2022-09-15T17:45:53.470Z,47.56
2022-09-15T17:48:21.107Z,48.94
2022-09-15T17:50:49.439Z,49.38
2022-09-15T17:53:21.425Z,50.04
2022-09-15T17:55:52.021Z,50.91
2022-09-15T17:58:19.262Z,50.38
2022-09-15T18:00:47.515Z,50.96
2022-09-15T18:03:23.883Z,51.42
2022-09-15T18:05:52.527Z,51.50
2022-09-15T18:08:19.876Z,52.38
2022-09-15T18:10:47.257Z,52.25
2022-09-15T18:13:27.356Z,52.65
2022-09-15T18:15:55.268Z,53.19
2022-09-15T18:18:27.902Z,53.52
2022-09-15T18:20:56.964Z,53.77
2022-09-15T18:23:26.849Z,54.20
2022-09-15T18:25:54.122Z,54.30
2022-09-15T18:28:21.229Z,54.44
2022-09-15T18:30:50.061Z,54.66
2022-09-15T18:33:20.466Z,55.03
2022-09-15T18:35:50.507Z,55.21
2022-09-15T18:38:17.823Z,55.21
2022-09-15T18:40:47.148Z,55.48
2022-09-15T18:43:14.301Z,55.37
2022-09-15T18:45:45.544Z,55.56
2022-09-15T18:48:13.419Z,55.74
2022-09-15T18:50:41.669Z,55.94
2022-09-15T18:53:09.412Z,56.13
2022-09-15T18:55:36.685Z,56.27
2022-09-15T18:58:03.811Z,56.22
2022-09-15T19:00:32.003Z,56.56
2022-09-15T19:03:01.615Z,56.79
2022-09-15T19:05:30.066Z,56.82
2022-09-15T19:07:57.976Z,56.86
2022-09-15T19:10:26.852Z,57.09
2022-09-15T19:12:54.780Z,57.08
2022-09-15T19:15:24.974Z,57.33
2022-09-15T19:17:52.403Z,57.25
2022-09-15T19:20:19.729Z,57.52
2022-09-15T19:22:47.727Z,57.54
2022-09-15T19:25:15.913Z,57.74
2022-09-15T19:27:43.318Z,57.84
2022-09-15T19:30:11.374Z,57.89
2022-09-15T19:32:40.145Z,58.03
2022-09-15T19:35:09.333Z,58.17
2022-09-15T19:37:39.423Z,58.52
2022-09-15T19:40:10.126Z,58.29
2022-09-15T19:42:39.203Z,58.21
2022-09-15T19:45:07.821Z,58.35
2022-09-15T19:47:35.710Z,58.42
2022-09-15T19:50:03.506Z,58.23
2022-09-15T19:52:30.692Z,58.39
2022-09-15T19:54:57.817Z,58.56
2022-09-15T19:57:25.265Z,58.34
2022-09-15T19:59:52.428Z,58.43
2022-09-15T20:02:20.252Z,58.61
2022-09-15T20:07:33.206Z,58.75
2022-09-15T20:10:00.285Z,58.78
2022-09-15T20:12:27.498Z,58.97
2022-09-15T20:14:54.606Z,59.12
2022-09-15T20:17:21.931Z,58.88
2022-09-15T20:19:49.208Z,58.96
2022-09-15T20:22:16.329Z,59.13
2022-09-15T20:24:43.511Z,58.81
2022-09-15T20:27:10.711Z,59.22
2022-09-15T20:29:39.061Z,59.58
2022-09-15T20:32:06.340Z,59.72
2022-09-15T20:34:33.774Z,59.79
2022-09-15T20:37:00.948Z,59.86
2022-09-15T20:39:29.191Z,60.33
2022-09-15T20:41:58.507Z,60.61
2022-09-15T20:45:02.415Z,60.84
2022-09-15T20:47:29.674Z,61.28
2022-09-15T20:49:56.895Z,61.20
2022-09-15T20:52:27.955Z,61.64
2022-09-15T20:54:56.664Z,61.84
2022-09-15T20:57:23.762Z,61.93
2022-09-15T20:59:50.949Z,61.99
2022-09-15T21:02:18.050Z,62.08
2022-09-15T21:04:47.038Z,61.98
2022-09-15T21:07:14.298Z,62.16
2022-09-15T21:09:41.523Z,62.64
2022-09-15T21:12:09.909Z,62.72
2022-09-15T21:14:37.116Z,62.75
2022-09-15T21:17:04.289Z,62.93
2022-09-15T21:19:31.758Z,62.61
2022-09-15T21:21:59.158Z,62.63
2022-09-15T21:24:26.347Z,62.41
2022-09-15T21:27:12.286Z,62.53
2022-09-15T21:29:39.820Z,62.26
2022-09-15T21:32:07.104Z,62.53
2022-09-15T21:34:34.379Z,62.56
2022-09-15T21:37:01.425Z,62.55
2022-09-15T21:39:28.494Z,62.66
2022-09-15T21:41:55.660Z,62.56
2022-09-15T21:44:22.875Z,62.33
2022-09-15T21:46:50.261Z,62.54
2022-09-15T21:49:18.478Z,61.89
2022-09-15T21:51:45.624Z,61.66
2022-09-15T21:54:13.861Z,61.64
2022-09-15T21:56:41.379Z,62.02
2022-09-15T21:59:09.224Z,62.05
2022-09-15T22:01:36.615Z,62.14
2022-09-15T22:04:09.159Z,62.45
2022-09-15T22:06:40.604Z,62.71
2022-09-15T22:09:15.125Z,62.73
2022-09-15T22:11:42.752Z,63.25
2022-09-15T22:14:10.798Z,63.23
2022-09-15T22:16:39.619Z,63.32
2022-09-15T22:19:08.171Z,63.51
2022-09-15T22:21:37.231Z,63.31
2022-09-15T22:24:07.132Z,63.59
2022-09-15T22:26:37.323Z,63.63
2022-09-15T22:29:05.599Z,63.33
2022-09-15T22:31:33.110Z,63.95
2022-09-15T22:34:00.374Z,63.91
2022-09-15T22:36:30.284Z,64.06
2022-09-15T22:39:06.007Z,63.87
2022-09-15T22:41:38.478Z,64.22
2022-09-15T22:44:07.502Z,63.91
2022-09-15T22:46:34.709Z,64.26
2022-09-15T22:49:01.945Z,64.48
2022-09-15T22:51:29.309Z,64.70
2022-09-15T22:53:57.606Z,64.40
2022-09-15T22:56:26.644Z,64.85
2022-09-15T22:58:54.887Z,64.79
2022-09-15T23:01:28.285Z,65.28
2022-09-15T23:04:00.933Z,65.06
2022-09-15T23:06:31.397Z,65.14
2022-09-15T23:09:01.033Z,65.64
2022-09-15T23:11:29.994Z,65.74
2022-09-15T23:13:57.654Z,65.78
2022-09-15T23:16:25.813Z,65.33
2022-09-15T23:18:54.160Z,65.54
2022-09-15T23:21:22.080Z,65.79
2022-09-15T23:23:49.417Z,65.93
2022-09-15T23:26:20.477Z,66.16
2022-09-15T23:28:49.335Z,65.74
2022-09-15T23:31:16.793Z,66.34
2022-09-15T23:33:44.346Z,65.98
2022-09-15T23:36:13.989Z,65.87
2022-09-15T23:38:44.545Z,66.36
2022-09-15T23:41:12.689Z,66.80
2022-09-15T23:43:39.952Z,66.68
2022-09-15T23:46:07.418Z,66.73
2022-09-15T23:48:34.879Z,67.02
2022-09-15T23:51:02.258Z,67.48
2022-09-15T23:53:29.853Z,67.17
2022-09-15T23:55:57.098Z,67.54
2022-09-15T23:58:24.963Z,67.57
